Time;durP1;ratioP1;P1;durP2;ratioP2;P2;SDS_P1;SDS_P2;PMS_P1;PMS_P2;Temp;Humidity;BMP_temperature;BMP_pressure;BME280_temperature;BME280_humidity;BME280_pressure;Samples;Min_cycle;Max_cycle;Signal;HPM_P1;HPM_P2
2022/03/08 00:01:26;;;;;;;3.30;1.27;;;;;;;;;;5048247;28;20379;-92
2022/03/08 00:03:53;;;;;;;2.40;1.20;;;;;;;;;;5046979;28;20387;-92
2022/03/08 00:06:20;;;;;;;2.50;1.30;;;;;;;;;;5047736;28;20386;-90
2022/03/08 00:08:47;;;;;;;2.50;1.30;;;;;;;;;;5050168;28;20376;-91
2022/03/08 00:11:16;;;;;;;3.50;1.73;;;;;;;;;;5051076;28;20838;-92
2022/03/08 00:13:43;;;;;;;2.33;1.42;;;;;;;;;;5050217;28;20380;-93
2022/03/08 00:16:10;;;;;;;1.45;1.35;;;;;;;;;;5053690;28;20359;-91
2022/03/08 00:18:38;;;;;;;1.77;1.55;;;;;;;;;;5054015;28;20383;-93
2022/03/08 00:21:05;;;;;;;2.30;1.40;;;;;;;;;;5049393;28;20755;-93
2022/03/08 00:23:33;;;;;;;2.78;1.35;;;;;;;;;;5049707;28;20424;-93
2022/03/08 00:26:00;;;;;;;3.40;1.50;;;;;;;;;;5049758;28;20364;-93
2022/03/08 00:28:30;;;;;;;2.40;1.60;;;;;;;;;;5050400;28;20372;-92
2022/03/08 00:30:57;;;;;;;3.00;1.90;;;;;;;;;;5048974;28;20859;-92
2022/03/08 00:33:24;;;;;;;2.42;1.40;;;;;;;;;;5048611;28;20396;-93
2022/03/08 00:35:52;;;;;;;2.78;1.60;;;;;;;;;;5047633;28;20728;-93
2022/03/08 00:38:19;;;;;;;2.03;1.60;;;;;;;;;;5048920;28;20465;-94
2022/03/08 00:40:46;;;;;;;3.75;1.67;;;;;;;;;;5048596;28;20399;-93
2022/03/08 00:43:13;;;;;;;3.00;1.80;;;;;;;;;;5052531;28;20410;-94
2022/03/08 00:45:40;;;;;;;3.23;1.53;;;;;;;;;;5052010;28;20368;-93
2022/03/08 00:48:07;;;;;;;2.80;1.63;;;;;;;;;;5052451;28;20402;-92
2022/03/08 00:50:34;;;;;;;1.63;1.40;;;;;;;;;;5051348;28;20721;-92
2022/03/08 00:53:01;;;;;;;4.15;1.65;;;20.70;99.90;;;;;;5053860;28;20400;-92
2022/03/08 00:55:29;;;;;;;3.53;1.63;;;;;;;;;;5052624;28;20387;-92
2022/03/08 00:57:56;;;;;;;2.25;1.30;;;21.90;99.90;;;;;;5050941;28;20887;-93
2022/03/08 01:00:25;;;;;;;3.92;1.40;;;;;;;;;;5051732;28;20872;-92
2022/03/08 01:02:52;;;;;;;1.88;1.50;;;22.00;99.90;;;;;;5049530;28;20741;-91
2022/03/08 01:05:20;;;;;;;1.50;1.30;;;;;;;;;;5050827;28;20924;-90
2022/03/08 01:07:47;;;;;;;2.47;1.37;;;;;;;;;;5048900;28;20412;-92
2022/03/08 01:10:17;;;;;;;2.45;1.27;;;22.00;99.90;;;;;;5048900;28;20411;-91
2022/03/08 01:12:49;;;;;;;2.65;1.38;;;22.00;99.90;;;;;;5052102;28;20841;-91
2022/03/08 01:15:18;;;;;;;1.75;1.13;;;22.00;99.90;;;;;;5051284;28;20380;-91
2022/03/08 01:17:47;;;;;;;2.80;1.40;;;22.00;99.90;;;;;;5051599;28;20380;-91
2022/03/08 01:20:15;;;;;;;2.17;1.35;;;22.10;99.90;;;;;;5051604;28;20375;-92
2022/03/08 01:22:42;;;;;;;3.22;1.40;;;;;;;;;;5052906;28;20374;-90
2022/03/08 01:25:13;;;;;;;1.77;1.23;;;;;;;;;;5053977;28;20441;-91
2022/03/08 01:27:40;;;;;;;1.85;1.35;;;22.10;99.90;;;;;;5052274;28;20384;-91
2022/03/08 01:30:08;;;;;;;2.63;1.20;;;;;;;;;;5053065;28;20385;-92
2022/03/08 01:32:35;;;;;;;2.63;1.10;;;;;;;;;;5054142;28;20428;-92
2022/03/08 01:35:02;;;;;;;2.70;1.35;;;;;;;;;;5052083;28;20370;-91
2022/03/08 01:37:31;;;;;;;3.47;1.40;;;;;;;;;;5053302;28;20867;-92
2022/03/08 01:39:58;;;;;;;5.18;1.50;;;;;;;;;;5055634;28;20372;-92
2022/03/08 01:42:26;;;;;;;2.88;1.20;;;;;;;;;;5060739;28;20379;-93
2022/03/08 01:44:53;;;;;;;4.40;1.48;;;;;;;;;;5055399;28;20376;-92
2022/03/08 01:47:21;;;;;;;3.58;1.10;;;;;;;;;;5053831;28;20379;-92
2022/03/08 01:49:49;;;;;;;2.42;1.20;;;;;;;;;;5052357;28;20426;-92
2022/03/08 01:52:16;;;;;;;1.75;1.20;;;;;;;;;;5051264;28;20429;-93
2022/03/08 01:54:45;;;;;;;3.58;1.40;;;;;;;;;;5047905;28;20372;-92
2022/03/08 01:57:13;;;;;;;2.92;1.25;;;;;;;;;;5048860;28;20380;-92
2022/03/08 01:59:40;;;;;;;4.43;1.27;;;;;;;;;;5050605;28;20451;-93
2022/03/08 02:02:07;;;;;;;2.77;1.20;;;;;;;;;;5049455;28;20383;-93
2022/03/08 02:04:34;;;;;;;4.40;1.40;;;;;;;;;;5049540;28;20398;-93
2022/03/08 02:07:02;;;;;;;3.60;1.50;;;;;;;;;;5048341;28;20740;-93
2022/03/08 02:09:29;;;;;;;3.35;1.38;;;;;;;;;;5047954;28;20376;-93
2022/03/08 02:11:55;;;;;;;2.67;1.00;;;;;;;;;;5049112;28;20396;-90
2022/03/08 02:14:22;;;;;;;1.35;1.00;;;;;;;;;;5049408;28;20433;-91
2022/03/08 02:16:49;;;;;;;2.88;1.10;;;;;;;;;;5048478;28;20823;-92
2022/03/08 02:19:16;;;;;;;1.77;0.90;;;;;;;;;;5047598;28;20398;-92
2022/03/08 02:21:44;;;;;;;1.33;1.15;;;;;;;;;;5047440;28;20368;-92
2022/03/08 02:24:11;;;;;;;2.72;1.20;;;;;;;;;;5048600;28;20388;-92
2022/03/08 02:26:38;;;;;;;1.42;0.80;;;;;;;;;;5047517;28;20425;-92
2022/03/08 02:29:06;;;;;;;0.70;0.70;;;;;;;;;;5049221;28;20746;-91
2022/03/08 02:31:33;;;;;;;1.95;0.80;;;;;;;;;;5049089;28;20407;-91
2022/03/08 02:34:01;;;;;;;1.33;0.77;;;;;;;;;;5047494;28;20419;-92
2022/03/08 02:36:28;;;;;;;0.80;0.80;;;;;;;;;;5047793;28;20382;-92
2022/03/08 02:38:55;;;;;;;1.13;0.70;;;;;;;;;;5048711;28;20364;-92
2022/03/08 02:41:22;;;;;;;1.10;0.70;;;;;;;;;;5047028;28;20464;-92
2022/03/08 02:43:49;;;;;;;1.23;0.80;;;;;;;;;;5047159;28;20420;-92
2022/03/08 02:46:16;;;;;;;2.63;0.70;;;;;;;;;;5048090;28;20496;-91
2022/03/08 02:48:43;;;;;;;0.50;0.50;;;;;;;;;;5046471;28;20399;-91
2022/03/08 02:51:10;;;;;;;2.28;0.80;;;;;;;;;;5047611;28;20396;-92
2022/03/08 02:53:37;;;;;;;1.25;0.80;;;;;;;;;;5049392;28;20419;-94
2022/03/08 02:56:04;;;;;;;3.78;0.90;;;;;;;;;;5050274;28;20368;-93
2022/03/08 02:58:31;;;;;;;1.85;0.90;;;;;;;;;;5051249;28;20403;-95
2022/03/08 03:00:58;;;;;;;3.97;0.93;;;22.00;99.90;;;;;;5051720;28;20379;-94
2022/03/08 03:03:25;;;;;;;1.98;1.00;;;21.30;99.90;;;;;;5063272;28;20427;-94
2022/03/08 03:05:52;;;;;;;2.23;0.80;;;21.20;99.90;;;;;;5063961;28;20387;-95
2022/03/08 03:08:19;;;;;;;2.15;0.90;;;21.20;99.90;;;;;;5068855;28;20412;-94
2022/03/08 03:10:46;;;;;;;3.25;1.10;;;21.20;99.90;;;;;;5059629;28;20457;-94
2022/03/08 03:13:13;;;;;;;2.00;1.27;;;21.30;99.90;;;;;;5032374;28;20865;-95
2022/03/08 03:15:40;;;;;;;1.93;1.10;;;21.30;99.90;;;;;;5030062;28;20386;-93
2022/03/08 03:18:11;;;;;;;3.53;1.30;;;21.30;99.90;;;;;;5040275;28;20406;-93
2022/03/08 03:20:38;;;;;;;2.70;1.15;;;21.30;99.90;;;;;;5050062;28;20372;-92
2022/03/08 03:23:05;;;;;;;3.00;1.30;;;;;;;;;;5067191;28;20386;-90
2022/03/08 03:25:32;;;;;;;2.95;1.38;;;;;;;;;;5047779;28;20368;-92
2022/03/08 03:27:59;;;;;;;2.33;1.05;;;;;;;;;;5048884;28;20387;-87
2022/03/08 03:30:26;;;;;;;5.05;1.70;;;;;;;;;;5049265;28;20414;-89
2022/03/08 03:32:53;;;;;;;2.08;1.00;;;;;;;;;;5048950;28;20404;-91
2022/03/08 03:35:20;;;;;;;2.83;1.10;;;;;;;;;;5048595;28;20379;-91
2022/03/08 03:37:47;;;;;;;3.35;0.93;;;;;;;;;;5047832;28;20470;-90
2022/03/08 03:40:15;;;;;;;3.67;1.27;;;21.40;99.90;;;;;;5083846;28;20407;-93
2022/03/08 03:42:41;;;;;;;2.75;0.85;;;;;;;;;;5052215;28;20743;-93
2022/03/08 03:45:09;;;;;;;2.85;1.10;;;21.00;99.90;;;;;;5085167;28;20406;-90
2022/03/08 03:47:36;;;;;;;2.88;0.98;;;;;;;;;;5049372;28;20414;-88
2022/03/08 03:50:06;;;;;;;2.38;1.00;;;21.00;99.90;;;;;;5048408;28;20407;-89
2022/03/08 03:52:33;;;;;;;1.45;0.70;;;;;;;;;;5046835;28;20395;-89
2022/03/08 03:55:00;;;;;;;2.03;0.60;;;21.00;99.90;;;;;;5044921;28;20461;-88
2022/03/08 03:57:27;;;;;;;1.77;0.70;;;21.10;99.90;;;;;;5046090;28;20894;-88
2022/03/08 03:59:54;;;;;;;1.98;0.65;;;;;;;;;;5035642;28;20441;-88
2022/03/08 04:02:21;;;;;;;1.60;0.60;;;;;;;;;;5028378;28;20381;-89
2022/03/08 04:04:48;;;;;;;1.70;0.70;;;;;;;;;;5026361;28;20931;-88
2022/03/08 04:07:15;;;;;;;1.70;0.50;;;;;;;;;;5026467;28;20377;-89
2022/03/08 04:09:41;;;;;;;1.98;0.60;;;;;;;;;;5024281;28;21165;-87
2022/03/08 04:12:09;;;;;;;2.97;1.00;;;;;;;;;;5025807;28;20412;-91
2022/03/08 04:14:35;;;;;;;2.45;0.77;;;;;;;;;;5032873;28;20404;-90
2022/03/08 04:17:02;;;;;;;2.53;0.50;;;;;;;;;;5031518;28;20386;-90
2022/03/08 04:19:29;;;;;;;1.58;0.50;;;;;;;;;;5033388;28;20451;-85
2022/03/08 04:21:59;;;;;;;1.65;0.50;;;;;;;;;;5033525;28;20501;-87
2022/03/08 04:24:27;;;;;;;1.77;0.55;;;;;;;;;;5031811;28;20392;-91
2022/03/08 04:26:54;;;;;;;1.73;0.60;;;;;;;;;;5030076;28;20373;-89
2022/03/08 04:29:21;;;;;;;2.00;0.50;;;;;;;;;;5050157;28;20851;-89
2022/03/08 04:31:48;;;;;;;2.10;0.47;;;;;;;;;;5083305;28;20419;-89
2022/03/08 04:34:15;;;;;;;3.43;0.50;;;;;;;;;;5070092;28;20887;-89
2022/03/08 04:36:42;;;;;;;2.50;0.70;;;;;;;;;;5050695;28;20368;-88
2022/03/08 04:39:09;;;;;;;1.10;0.40;;;;;;;;;;5046864;28;20894;-89
2022/03/08 04:41:36;;;;;;;1.95;0.60;;;;;;;;;;5083259;28;20399;-89
2022/03/08 04:44:03;;;;;;;3.30;0.70;;;;;;;;;;5083729;28;20396;-87
2022/03/08 04:46:29;;;;;;;1.67;0.50;;;;;;;;;;5050510;28;20384;-88
2022/03/08 04:48:56;;;;;;;2.78;0.70;;;;;;;;;;5031491;28;20381;-89
2022/03/08 04:51:24;;;;;;;2.45;0.65;;;;;;;;;;5029284;28;20417;-87
2022/03/08 04:53:51;;;;;;;2.90;0.57;;;;;;;;;;5031045;28;20727;-86
2022/03/08 04:56:18;;;;;;;1.35;0.60;;;;;;;;;;5030524;28;20381;-88
2022/03/08 04:58:46;;;;;;;2.75;0.63;;;;;;;;;;5029071;28;20754;-89
2022/03/08 05:01:13;;;;;;;1.58;0.60;;;;;;;;;;5030162;28;20377;-90
2022/03/08 05:03:40;;;;;;;1.45;0.60;;;;;;;;;;5030227;28;20392;-87
2022/03/08 05:06:07;;;;;;;1.15;0.50;;;;;;;;;;5042308;28;20412;-88
2022/03/08 05:08:33;;;;;;;1.80;0.60;;;;;;;;;;5033791;28;20436;-89
2022/03/08 05:11:01;;;;;;;1.45;0.80;;;;;;;;;;5033092;28;20374;-92
2022/03/08 05:13:30;;;;;;;2.07;0.80;;;;;;;;;;5032176;28;20400;-92
2022/03/08 05:15:57;;;;;;;3.67;0.80;;;;;;;;;;5032694;28;20437;-89
2022/03/08 05:18:24;;;;;;;2.97;1.05;;;;;;;;;;5051584;28;20385;-87
2022/03/08 05:20:51;;;;;;;1.65;0.63;;;;;;;;;;5039467;28;20370;-90
2022/03/08 05:23:20;;;;;;;2.45;0.90;;;;;;;;;;5045874;28;20387;-88
2022/03/08 05:25:47;;;;;;;2.10;0.60;;;;;;;;;;5039165;28;20453;-91
2022/03/08 05:28:14;;;;;;;3.80;0.90;;;;;;;;;;5042123;28;20396;-89
2022/03/08 05:30:41;;;;;;;3.92;0.70;;;;;;;;;;5038395;28;20371;-90
2022/03/08 05:33:08;;;;;;;3.63;0.80;;;;;;;;;;5036784;28;20468;-86
2022/03/08 05:35:35;;;;;;;2.53;0.70;;;;;;;;;;5038630;28;20886;-90
2022/03/08 05:38:02;;;;;;;1.58;0.68;;;;;;;;;;5058150;28;20392;-87
2022/03/08 05:40:29;;;;;;;3.38;0.70;;;;;;;;;;5060312;28;20438;-88
2022/03/08 05:42:58;;;;;;;2.90;0.68;;;;;;;;;;5036272;28;20877;-90
2022/03/08 05:45:25;;;;;;;5.07;0.80;;;;;;;;;;5033905;28;21004;-90
2022/03/08 05:47:52;;;;;;;3.65;0.70;;;;;;;;;;5039281;28;20380;-85
2022/03/08 05:50:19;;;;;;;3.05;0.68;;;;;;;;;;5038635;28;20391;-85
2022/03/08 05:52:46;;;;;;;3.70;0.77;;;;;;;;;;5038929;28;20678;-84
2022/03/08 05:55:13;;;;;;;2.10;0.70;;;;;;;;;;5062885;28;20893;-91
2022/03/08 05:57:40;;;;;;;2.93;0.67;;;;;;;;;;5035677;28;20420;-89
2022/03/08 06:00:07;;;;;;;4.32;0.70;;;;;;;;;;5039875;28;20379;-85
2022/03/08 06:02:34;;;;;;;3.22;0.70;;;;;;;;;;5047666;28;20413;-89
2022/03/08 06:05:01;;;;;;;5.75;0.90;;;;;;;;;;5034397;28;20393;-93
2022/03/08 06:07:28;;;;;;;5.38;0.95;;;;;;;;;;5037696;28;20383;-89
2022/03/08 06:09:55;;;;;;;3.45;0.70;;;;;;;;;;5062298;28;20387;-89
2022/03/08 06:12:22;;;;;;;2.58;0.70;;;;;;;;;;5036782;28;20443;-89
2022/03/08 06:14:49;;;;;;;2.43;0.70;;;;;;;;;;5032962;28;20489;-92
2022/03/08 06:17:15;;;;;;;1.95;0.60;;;;;;;;;;5035603;28;20939;-92
2022/03/08 06:19:42;;;;;;;3.22;0.57;;;;;;;;;;5036540;28;20517;-83
2022/03/08 06:22:09;;;;;;;2.05;0.40;;;;;;;;;;5036032;28;20371;-89
2022/03/08 06:24:36;;;;;;;1.23;0.50;;;;;;;;;;5035526;28;20484;-92
2022/03/08 06:27:03;;;;;;;2.58;0.60;;;;;;;;;;5034130;28;20393;-93
2022/03/08 06:29:30;;;;;;;2.15;0.50;;;;;;;;;;5030878;28;20381;-88
2022/03/08 06:31:57;;;;;;;2.75;0.60;;;;;;;;;;5066059;28;20417;-91
2022/03/08 06:34:24;;;;;;;2.80;0.60;;;;;;;;;;5033259;28;20947;-88
2022/03/08 06:36:51;;;;;;;1.02;0.40;;;;;;;;;;5033309;28;20387;-91
2022/03/08 06:39:18;;;;;;;1.10;0.47;;;;;;;;;;5036701;28;20399;-88
2022/03/08 06:41:45;;;;;;;1.67;0.40;;;;;;;;;;5045163;28;20389;-86
2022/03/08 06:44:12;;;;;;;1.07;0.40;;;;;;;;;;5045337;28;20383;-90
2022/03/08 06:46:44;;;;;;;1.95;0.50;;;;;;;;;;5073042;28;20408;-90
2022/03/08 06:49:14;;;;;;;1.80;0.40;;;;;;;;;;5028981;28;20889;-88
2022/03/08 06:51:41;;;;;;;2.25;0.40;;;;;;;;;;5027403;28;20409;-91
2022/03/08 06:54:08;;;;;;;2.00;0.47;;;;;;;;;;5036093;28;20393;-86
2022/03/08 06:56:35;;;;;;;1.90;0.50;;;;;;;;;;5065598;28;20391;-94
2022/03/08 06:59:03;;;;;;;1.60;0.40;;;;;;;;;;5041863;28;20406;-93
2022/03/08 07:01:30;;;;;;;1.33;0.40;;;;;;;;;;5045193;28;20380;-90
2022/03/08 07:03:57;;;;;;;1.65;0.40;;;;;;;;;;5081829;28;20919;-87
2022/03/08 07:06:24;;;;;;;1.90;0.30;;;;;;;;;;5039120;28;20397;-89
2022/03/08 07:08:53;;;;;;;2.53;0.60;;;;;;;;;;5045482;28;20387;-94
2022/03/08 07:11:20;;;;;;;1.02;0.30;;;;;;;;;;5038385;28;20401;-91
2022/03/08 07:13:47;;;;;;;1.25;0.80;;;;;;;;;;5044045;28;20388;-88
2022/03/08 07:16:14;;;;;;;1.63;0.52;;;;;;;;;;5040917;28;20434;-91
2022/03/08 07:18:41;;;;;;;2.35;1.15;;;;;;;;;;5040015;28;20865;-88
2022/03/08 07:21:08;;;;;;;0.90;0.30;;;;;;;;;;5037557;28;20444;-91
2022/03/08 07:23:35;;;;;;;0.60;0.30;;;;;;;;;;5032409;28;20504;-90
2022/03/08 07:26:02;;;;;;;2.10;0.35;;;;;;;;;;5032518;28;20408;-89
2022/03/08 07:28:29;;;;;;;1.58;0.40;;;;;;;;;;5036473;28;20389;-84
2022/03/08 07:30:56;;;;;;;0.57;0.40;;;;;;;;;;5040468;28;20466;-86
2022/03/08 07:33:23;;;;;;;0.80;0.30;;;;;;;;;;5039490;28;20419;-85
2022/03/08 07:35:49;;;;;;;1.10;0.30;;;;;;;;;;5031702;28;20907;-90
2022/03/08 07:38:16;;;;;;;1.60;0.40;;;;;;;;;;5039307;28;20393;-83
2022/03/08 07:40:43;;;;;;;1.00;0.28;;;;;;;;;;5031596;28;20908;-84
2022/03/08 07:43:10;;;;;;;2.08;0.30;;;;;;;;;;5031649;28;20373;-93
2022/03/08 07:45:40;;;;;;;2.53;0.25;;;;;;;;;;5028672;28;20397;-81
2022/03/08 07:48:07;;;;;;;1.10;0.20;;;;;;;;;;5033976;28;20432;-81
2022/03/08 07:50:35;;;;;;;0.40;0.20;;;;;;;;;;5043185;28;20485;-83
2022/03/08 07:53:02;;;;;;;1.02;0.28;;;;;;;;;;5030158;28;20409;-88
2022/03/08 07:55:30;;;;;;;1.38;0.20;;;;;;;;;;5035317;28;20379;-83
2022/03/08 07:57:57;;;;;;;0.45;0.20;;;;;;;;;;5049966;28;20379;-91
2022/03/08 08:00:25;;;;;;;0.70;0.10;;;;;;;;;;5046231;28;20375;-87
2022/03/08 08:02:52;;;;;;;0.53;0.20;;;;;;;;;;5042343;28;20383;-89
2022/03/08 08:05:20;;;;;;;0.52;0.20;;;;;;;;;;5050296;28;20391;-85
2022/03/08 08:07:47;;;;;;;0.50;0.10;;;;;;;;;;5047859;28;20912;-86
2022/03/08 08:10:14;;;;;;;1.27;0.30;;;;;;;;;;5042594;28;20402;-88
2022/03/08 08:12:41;;;;;;;0.73;0.20;;;;;;;;;;5040776;28;20403;-87
2022/03/08 08:15:08;;;;;;;1.00;0.20;;;;;;;;;;5033060;28;20442;-86
2022/03/08 08:17:35;;;;;;;1.30;0.20;;;;;;;;;;5031836;28;20385;-91
2022/03/08 08:20:02;;;;;;;0.50;0.20;;;;;;;;;;5030712;28;20373;-87
2022/03/08 08:22:29;;;;;;;2.15;0.30;;;;;;;;;;5030215;28;20377;-88
2022/03/08 08:24:56;;;;;;;0.60;0.10;;;;;;;;;;5029620;28;20440;-91
2022/03/08 08:27:23;;;;;;;0.93;0.20;;;;;;;;;;5030846;28;20384;-91
2022/03/08 08:29:50;;;;;;;0.95;0.10;;;;;;;;;;5035466;28;20744;-84
2022/03/08 08:32:17;;;;;;;0.50;0.20;;;;;;;;;;5049174;28;20404;-84
2022/03/08 08:34:44;;;;;;;0.88;0.20;;;;;;;;;;5044962;28;20383;-92
2022/03/08 08:37:11;;;;;;;0.70;0.10;;;;;;;;;;5044626;28;20816;-84
2022/03/08 08:39:38;;;;;;;0.40;0.17;;;;;;;;;;5043312;28;20372;-90
2022/03/08 08:42:06;;;;;;;0.82;0.15;;;;;;;;;;5045871;28;20385;-86
2022/03/08 08:44:34;;;;;;;0.50;0.20;;;;;;;;;;5038275;28;20870;-87
2022/03/08 08:47:01;;;;;;;0.40;0.10;;;;;;;;;;5039508;28;20391;-81
2022/03/08 08:49:29;;;;;;;0.63;0.10;;;;;;;;;;5055057;28;20720;-82
2022/03/08 08:51:56;;;;;;;1.10;0.10;;;;;;;;;;5059667;28;20399;-86
2022/03/08 08:54:26;;;;;;;0.40;0.20;;;;;;;;;;5052281;28;20393;-83
2022/03/08 08:56:55;;;;;;;1.25;0.30;;;;;;;;;;5041441;28;20388;-88
2022/03/08 08:59:22;;;;;;;2.60;0.70;;;;;;;;;;5052206;28;20368;-81
2022/03/08 09:01:49;;;;;;;1.65;0.40;;;;;;;;;;5057482;28;20394;-90
2022/03/08 09:04:16;;;;;;;0.82;0.50;;;;;;;;;;5055769;28;20372;-88
2022/03/08 09:06:43;;;;;;;2.15;0.90;;;;;;;;;;5044615;28;20389;-90
2022/03/08 09:09:10;;;;;;;1.27;0.80;;;;;;;;;;5052010;28;20386;-84
2022/03/08 09:11:39;;;;;;;1.65;0.50;;;;;;;;;;5059098;28;20818;-92
2022/03/08 09:14:06;;;;;;;1.80;0.20;;;;;;;;;;5056975;28;20372;-86
2022/03/08 09:16:36;;;;;;;0.88;0.20;;;;;;;;;;5057749;28;20374;-87
2022/03/08 09:19:06;;;;;;;0.60;0.10;;;;;;;;;;5056874;28;20736;-81
2022/03/08 09:21:33;;;;;;;0.30;0.10;;;;;;;;;;5089870;28;20376;-86
2022/03/08 09:24:01;;;;;;;0.85;0.10;;;;;;;;;;5054174;28;20397;-85
2022/03/08 09:26:28;;;;;;;2.15;0.17;;;;;;;;;;5036037;28;20386;-88
2022/03/08 09:28:55;;;;;;;0.10;0.10;;;;;;;;;;5039806;28;20392;-88
2022/03/08 09:31:22;;;;;;;1.20;0.10;;;;;;;;;;5053295;28;20458;-83
2022/03/08 09:33:50;;;;;;;0.30;0.20;;;;;;;;;;5056115;28;20407;-87
2022/03/08 09:36:17;;;;;;;0.20;0.20;;;;;;;;;;5052693;28;20941;-83
2022/03/08 09:38:44;;;;;;;0.40;0.10;;;;;;;;;;5041918;28;20391;-87
2022/03/08 09:41:13;;;;;;;0.10;0.10;;;;;;;;;;5045237;28;20427;-88
2022/03/08 09:43:40;;;;;;;1.00;0.20;;;;;;;;;;5053145;28;20415;-83
2022/03/08 09:46:07;;;;;;;0.28;0.10;;;;;;;;;;5054595;28;20858;-83
2022/03/08 09:48:36;;;;;;;1.23;0.17;;;;;;;;;;5054780;28;20395;-89
2022/03/08 09:51:04;;;;;;;0.13;0.10;;;;;;;;;;5070845;28;20395;-84
2022/03/08 09:53:34;;;;;;;1.13;0.10;;;21.00;99.90;;;;;;5027866;28;20404;-83
2022/03/08 09:56:05;;;;;;;0.28;0.10;;;18.90;99.90;;;;;;5014836;28;20494;-90
2022/03/08 09:58:32;;;;;;;0.93;0.15;;;18.80;99.90;;;;;;5022248;28;20389;-85
2022/03/08 10:01:02;;;;;;;0.60;0.15;;;;;;;;;;5011639;28;20869;-86
2022/03/08 10:03:35;;;;;;;0.68;0.20;;;;;;;;;;5031383;28;20386;-88
2022/03/08 10:06:03;;;;;;;0.60;0.30;;;;;;;;;;5026589;28;20904;-92
2022/03/08 10:08:30;;;;;;;0.40;0.10;;;;;;;;;;5015357;28;20393;-85
2022/03/08 10:11:01;;;;;;;1.23;0.22;;;;;;;;;;5025731;28;20385;-88
2022/03/08 10:13:31;;;;;;;0.30;0.28;;;;;;;;;;5027794;28;20968;-92
2022/03/08 10:16:05;;;;;;;1.08;0.20;;;;;;;;;;5025131;28;20496;-87
2022/03/08 10:18:33;;;;;;;0.70;0.20;;;;;;;;;;5026290;28;20381;-85
2022/03/08 10:21:00;;;;;;;0.43;0.20;;;;;;;;;;5026492;28;20938;-88
2022/03/08 10:23:27;;;;;;;2.47;0.20;;;;;;;;;;5018402;28;20772;-93
2022/03/08 10:26:02;;;;;;;0.20;0.10;;;;;;;;;;5027559;28;20373;-85
2022/03/08 10:28:29;;;;;;;0.55;0.17;;;;;;;;;;5027621;28;20378;-86
2022/03/08 10:30:56;;;;;;;2.30;0.25;;;;;;;;;;5027603;28;20456;-84
2022/03/08 10:33:34;;;;;;;0.10;0.10;;;;;;;;;;5028933;28;20761;-87
2022/03/08 10:36:01;;;;;;;0.17;0.10;;;;;;;;;;5046188;28;20470;-85
2022/03/08 10:38:28;;;;;;;0.40;0.17;;;;;;;;;;5047932;28;20371;-86
2022/03/08 10:40:55;;;;;;;0.52;0.10;;;;;;;;;;5044705;28;20936;-86
2022/03/08 10:43:22;;;;;;;0.60;0.20;;;;;;;;;;5035889;28;20745;-87
2022/03/08 10:45:50;;;;;;;0.60;0.10;;;;;;;;;;5042325;28;20774;-84
2022/03/08 10:48:18;;;;;;;0.82;0.10;;;;;;;;;;5051784;28;20375;-88
2022/03/08 10:50:48;;;;;;;0.70;0.22;;;;;;;;;;5048136;28;20458;-82
2022/03/08 10:53:17;;;;;;;1.35;0.20;;;;;;;;;;5047692;28;20511;-87
2022/03/08 10:55:49;;;;;;;0.55;0.10;;;;;;;;;;5046710;28;20382;-88
2022/03/08 10:58:16;;;;;;;0.60;0.10;;;;;;;;;;5031929;28;20389;-86
2022/03/08 11:00:44;;;;;;;0.60;0.10;;;;;;;;;;5038396;28;20716;-81
2022/03/08 11:03:19;;;;;;;0.20;0.10;;;;;;;;;;5027169;28;20854;-82
2022/03/08 11:05:49;;;;;;;1.40;0.20;;;;;;;;;;5035726;28;20782;-86
2022/03/08 11:08:16;;;;;;;0.80;0.10;;;;;;;;;;5046203;28;20391;-87
2022/03/08 11:10:44;;;;;;;1.50;0.20;;;;;;;;;;5047066;28;20390;-84
2022/03/08 11:13:11;;;;;;;0.10;0.10;;;;;;;;;;5046526;28;20919;-84
2022/03/08 11:15:40;;;;;;;0.30;0.10;;;;;;;;;;5046252;28;20736;-87
2022/03/08 11:18:08;;;;;;;0.30;0.10;;;;;;;;;;5047190;28;20883;-86
2022/03/08 11:20:35;;;;;;;0.80;0.20;;;;;;;;;;5046663;28;20909;-86
2022/03/08 11:23:03;;;;;;;2.05;0.20;;;;;;;;;;5045878;28;20408;-85
2022/03/08 11:25:31;;;;;;;0.80;0.20;;;;;;;;;;5046201;28;20429;-83
2022/03/08 11:27:58;;;;;;;0.73;0.10;;;;;;;;;;5045419;28;20400;-90
2022/03/08 11:30:27;;;;;;;0.20;0.10;;;;;;;;;;5032192;28;20483;-83
2022/03/08 11:32:55;;;;;;;0.70;0.15;;;;;;;;;;5045859;28;20435;-89
2022/03/08 11:35:37;;;;;;;2.00;0.10;;;;;;;;;;5037491;28;20385;-85
2022/03/08 11:38:05;;;;;;;0.70;0.20;;;;;;;;;;5044441;28;20472;-88
2022/03/08 11:40:35;;;;;;;0.90;0.28;;;;;;;;;;5033193;28;20411;-83
2022/03/08 11:43:04;;;;;;;0.10;0.10;;;;;;;;;;5026932;28;20452;-86
2022/03/08 11:45:32;;;;;;;1.20;0.10;;;;;;;;;;5028919;28;20392;-84
2022/03/08 11:48:00;;;;;;;1.13;0.20;;;;;;;;;;5040031;28;20387;-86
2022/03/08 11:50:32;;;;;;;0.20;0.17;;;;;;;;;;5026533;28;20399;-92
2022/03/08 11:53:06;;;;;;;2.20;0.20;;;;;;;;;;5038709;28;20499;-90
2022/03/08 11:55:33;;;;;;;1.08;0.13;;;;;;;;;;5040474;28;20379;-90
2022/03/08 11:58:18;;;;;;;1.60;0.20;;;;;;;;;;5026554;28;20381;-87
2022/03/08 12:00:55;;;;;;;1.23;0.20;;;;;;;;;;5026913;28;20401;-86
2022/03/08 12:03:22;;;;;;;1.08;0.30;;;;;;;;;;5032645;28;20798;-86
2022/03/08 12:05:49;;;;;;;0.93;0.10;;;;;;;;;;5077352;28;20423;-87
2022/03/08 12:08:28;;;;;;;1.08;0.17;;;;;;;;;;5026392;28;20384;-88
2022/03/08 12:10:58;;;;;;;0.28;0.10;;;;;;;;;;5027395;28;20460;-87
2022/03/08 12:13:26;;;;;;;1.70;0.20;;;;;;;;;;5037844;28;20441;-91
2022/03/08 12:16:22;;;;;;;0.30;0.10;;;;;;;;;;5026468;28;20482;-86
2022/03/08 12:18:49;;;;;;;0.40;0.10;;;;;;;;;;4947293;29;20380;-86
2022/03/08 12:21:24;;;;;;;1.50;0.20;;;;;;;;;;4950255;28;20413;-84
2022/03/08 12:23:53;;;;;;;0.80;0.20;;;;;;;;;;4964905;28;20981;-84
2022/03/08 12:26:26;;;;;;;1.40;0.10;;;;;;;;;;4958396;28;21347;-89
2022/03/08 12:29:06;;;;;;;0.80;0.20;;;;;;;;;;4946762;29;20496;-84
2022/03/08 12:31:34;;;;;;;1.40;0.10;;;;;;;;;;4961547;28;20419;-84
2022/03/08 12:34:02;;;;;;;0.97;0.10;;;;;;;;;;4947630;28;20412;-85
2022/03/08 12:36:29;;;;;;;1.20;0.30;;;;;;;;;;4939821;29;20381;-87
2022/03/08 12:38:56;;;;;;;1.67;0.10;;;;;;;;;;4933711;29;20399;-89
2022/03/08 12:41:26;;;;;;;0.80;0.10;;;;;;;;;;4968071;28;20394;-90
2022/03/08 12:44:00;;;;;;;0.85;0.10;;;;;;;;;;4970119;28;20473;-83
2022/03/08 12:46:28;;;;;;;0.38;0.05;;;;;;;;;;4968271;28;20403;-86
2022/03/08 12:48:55;;;;;;;1.95;0.10;;;;;;;;;;4966757;28;20398;-89
2022/03/08 12:51:22;;;;;;;1.60;0.10;;;;;;;;;;4968039;28;20961;-83
2022/03/08 12:54:00;;;;;;;0.17;0.10;;;;;;;;;;4962174;28;20404;-86
2022/03/08 12:56:27;;;;;;;0.55;0.10;;;;;;;;;;5028992;28;20377;-84
2022/03/08 12:59:04;;;;;;;0.43;0.20;;;;;;;;;;5036957;28;20404;-89
2022/03/08 13:01:31;;;;;;;0.70;0.10;;;;;;;;;;5029714;28;20437;-91
2022/03/08 13:03:57;;;;;;;1.67;0.17;;;;;;;;;;5034773;28;20393;-89
2022/03/08 13:06:25;;;;;;;0.50;0.10;;;;;;;;;;5028969;28;20440;-88
2022/03/08 13:08:52;;;;;;;1.60;0.10;;;;;;;;;;5031980;28;20443;-86
2022/03/08 13:11:20;;;;;;;0.57;0.10;;;;;;;;;;5045789;28;20372;-88
2022/03/08 13:13:46;;;;;;;1.40;0.10;;;;;;;;;;5031704;28;20393;-86
2022/03/08 13:16:16;;;;;;;0.90;0.10;;;;;;;;;;5028984;28;20449;-85
2022/03/08 13:18:43;;;;;;;1.30;0.10;;;;;;;;;;5029433;28;20865;-84
2022/03/08 13:21:11;;;;;;;1.20;0.10;;;;;;;;;;5028763;28;20427;-88
2022/03/08 13:23:44;;;;;;;0.17;0.00;;;;;;;;;;5043521;28;20384;-89
2022/03/08 13:26:48;;;;;;;0.10;0.10;;;;;;;;;;5049168;28;20709;-84
2022/03/08 13:28:58;;;;;;;0.30;0.00;;;;;;;;;;5028661;28;20384;-85
2022/03/08 13:31:26;;;;;;;1.05;0.10;;;;;;;;;;5027585;28;20526;-90
2022/03/08 13:33:53;;;;;;;0.70;0.10;;;;;;;;;;5030562;28;20389;-86
2022/03/08 13:36:21;;;;;;;1.10;0.10;;;;;;;;;;5028550;28;20385;-91
2022/03/08 13:38:52;;;;;;;1.52;0.00;;;;;;;;;;5029491;28;20390;-89
2022/03/08 13:41:19;;;;;;;0.55;0.10;;;;;;;;;;5045243;28;20432;-85
2022/03/08 13:43:47;;;;;;;0.50;0.10;;;;;;;;;;5048175;28;20375;-84
2022/03/08 13:46:25;;;;;;;0.75;0.10;;;;;;;;;;5048519;28;20379;-83
2022/03/08 13:49:03;;;;;;;1.17;0.10;;;;;;;;;;5049070;28;20386;-86
2022/03/08 13:51:31;;;;;;;0.98;0.10;;;;;;;;;;5035947;28;20423;-90
2022/03/08 13:53:58;;;;;;;0.90;0.00;;;;;;;;;;5043809;28;20395;-88
2022/03/08 13:56:26;;;;;;;0.95;0.10;;;;;;;;;;5038105;28;20488;-90
2022/03/08 13:58:57;;;;;;;0.70;0.10;;;;;;;;;;5029831;28;20579;-87
2022/03/08 14:01:24;;;;;;;0.57;0.08;;;;;;;;;;5039407;28;20379;-83
2022/03/08 14:03:52;;;;;;;0.67;0.03;;;;;;;;;;5029597;28;20989;-91
2022/03/08 14:06:23;;;;;;;0.00;0.00;;;;;;;;;;5031689;28;20387;-89
2022/03/08 14:08:51;;;;;;;0.20;0.03;;;;;;;;;;5080098;28;20796;-84
2022/03/08 14:11:20;;;;;;;0.90;0.10;;;;;;;;;;5047204;28;20466;-84
2022/03/08 14:13:54;;;;;;;0.70;0.10;;;;;;;;;;5032768;28;20385;-86
2022/03/08 14:16:24;;;;;;;0.70;0.10;;;;;;;;;;5039252;28;20380;-85
2022/03/08 14:18:52;;;;;;;0.40;0.00;;;;;;;;;;5050735;28;20380;-90
2022/03/08 14:21:36;;;;;;;0.90;0.00;;;;;;;;;;5034813;28;20407;-88
2022/03/08 14:24:23;;;;;;;1.30;0.10;;;;;;;;;;5049393;28;20453;-90
2022/03/08 14:27:08;;;;;;;1.25;0.10;;;;;;;;;;5049785;28;20398;-93
2022/03/08 14:29:36;;;;;;;0.80;0.10;;;;;;;;;;5049247;28;20383;-85
2022/03/08 14:32:08;;;;;;;0.30;0.00;;;;;;;;;;5038529;28;20771;-90
2022/03/08 14:34:36;;;;;;;0.20;0.00;;;;;;;;;;5053767;28;20394;-84
2022/03/08 14:37:07;;;;;;;1.40;0.10;;;;;;;;;;5065701;28;20457;-88
2022/03/08 14:39:39;;;;;;;1.00;0.10;;;;;;;;;;5065082;28;20455;-91